KARA/ARA METAR and TAF weather

Enter ICAO airport designator
Station Type Date Time Source
KARA METAR 2018/06/25 16:53 UTC NOAA

KARA 251653Z 15005KT 10SM CLR 32/21 A3009 RMK AO2 SLP189 T03220211 $


Station Type Date Time Source
KARA Decoded METAR 2018/06/25 16:53 UTC NOAA

NEW IBERIA ACADIANA REGIONAL, LA, United States (KARA) 30-02N 091-53W 18M
Jun 25, 2018 - 12:53 PM EDT / 2018.06.25 1653 UTC
Wind: from the SSE (150 degrees) at 6 MPH (5 KT):0
Visibility: 10 mile(s):0
Sky conditions: clear
Temperature: 90.0 F (32.2 C)
Heat index: 95.5 F (35.3 C):1
Dew Point: 70.0 F (21.1 C)
Relative Humidity: 52%
Pressure (altimeter): 30.09 in. Hg (1018 hPa)
ob: KARA 251653Z 15005KT 10SM CLR 32/21 A3009 RMK AO2 SLP189 T03220211
cycle: 17

Station Type Date Time Source
KARA TAF 2018/06/25 12:27 UTC NOAA

TAF KARA 251120Z 2512/2612 16005KT P6SM FEW025
FM251500 19012G20KT P6SM SCT035 BKN050
FM260100 17005KT P6SM SCT250


Example: see airport list